Time;durP1;ratioP1;P1;durP2;ratioP2;P2;SDS_P1;SDS_P2;PMS_P1;PMS_P2;Temp;Humidity;BMP_temperature;BMP_pressure;BME280_temperature;BME280_humidity;BME280_pressure;Samples;Min_cycle;Max_cycle;Signal;HPM_P1;HPM_P2
2023/04/20 00:02:01;;;;;;;16.35;6.50;;;;;;;9.78;36.71;99959.41;7339488;19;20022;-63
2023/04/20 00:04:26;;;;;;;19.45;6.53;;;;;;;9.74;36.58;99949.03;7340071;19;20010;-63
2023/04/20 00:06:52;;;;;;;14.35;6.50;;;;;;;9.75;35.80;99948.09;7340582;19;20023;-64
2023/04/20 00:09:17;;;;;;;23.25;6.55;;;;;;;9.71;36.99;99958.06;7340747;19;20063;-63
2023/04/20 00:11:41;;;;;;;15.85;6.72;;;;;;;9.70;37.41;99947.53;7341242;19;20015;-63
2023/04/20 00:14:06;;;;;;;15.10;6.43;;;;;;;9.67;36.28;99939.72;7336589;19;20030;-63
2023/04/20 00:16:31;;;;;;;17.05;6.85;;;;;;;9.63;38.15;99951.50;7341178;19;20010;-64
2023/04/20 00:19:00;;;;;;;15.05;6.30;;;;;;;9.65;38.00;99945.16;7336606;19;20014;-63
2023/04/20 00:21:25;;;;;;;14.55;6.90;;;;;;;9.61;38.29;99950.75;7354265;19;20015;-65
2023/04/20 00:23:50;;;;;;;14.45;6.55;;;;;;;9.58;38.23;99959.81;7349896;19;20110;-63
2023/04/20 00:26:18;;;;;;;15.15;6.13;;;;;;;9.53;38.86;99955.69;7342322;19;20023;-64
2023/04/20 00:28:50;;;;;;;17.20;6.50;;;;;;;9.52;38.96;99949.53;7335723;19;20015;-62
2023/04/20 00:31:14;;;;;;;15.63;6.88;;;;;;;9.48;39.04;99937.34;7339959;19;20019;-63
2023/04/20 00:33:39;;;;;;;21.85;6.85;;;;;;;9.44;38.51;99954.47;7336129;19;20040;-63
2023/04/20 00:36:05;;;;;;;14.55;6.10;;;;;;;9.39;38.38;99948.56;7345952;19;20015;-67
2023/04/20 00:38:31;;;;;;;11.35;6.53;;;;;;;9.35;39.51;99939.09;7351635;19;20029;-63
2023/04/20 00:40:57;;;;;;;12.90;6.20;;;;;;;9.29;40.14;99937.63;7341952;19;20527;-63
2023/04/20 00:43:22;;;;;;;16.70;6.38;;;;;;;9.27;38.87;99933.34;7356449;19;20014;-64
2023/04/20 00:45:51;;;;;;;20.52;7.95;;;;;;;9.28;39.35;99940.38;7361713;19;20007;-64
2023/04/20 00:48:15;;;;;;;21.23;6.88;;;;;;;9.27;38.63;99936.00;7346711;19;20010;-62
2023/04/20 00:50:40;;;;;;;12.05;6.78;;;;;;;9.24;39.19;99926.44;7342480;19;20030;-62
2023/04/20 00:53:06;;;;;;;17.92;6.60;;;;;;;9.21;40.39;99929.28;7339418;19;20101;-62
2023/04/20 00:55:31;;;;;;;19.45;6.15;;;;;;;9.20;39.21;99921.38;7336384;19;20039;-62
2023/04/20 00:57:56;;;;;;;16.25;6.13;;;;;;;9.19;38.81;99930.31;7339468;19;20010;-64
2023/04/20 01:00:21;;;;;;;19.92;6.97;;;;;;;9.16;38.77;99919.84;7343939;19;20030;-63
2023/04/20 01:02:47;;;;;;;15.07;6.15;;;;;;;9.15;39.68;99916.34;7340274;19;20015;-63
2023/04/20 01:05:12;;;;;;;20.40;6.35;;;;;;;9.11;40.71;99917.50;7340593;19;20070;-62
2023/04/20 01:07:36;;;;;;;21.48;7.63;;;;;;;9.09;39.56;99919.38;7337573;19;20010;-64
2023/04/20 01:10:01;;;;;;;13.63;6.07;;;;;;;9.10;38.92;99919.31;7340868;19;20070;-64
2023/04/20 01:12:26;;;;;;;20.33;6.40;;;;;;;9.13;39.06;99912.09;7338140;19;20022;-63
2023/04/20 01:14:51;;;;;;;18.50;6.57;;;;;;;9.15;39.49;99915.47;7335160;19;20146;-65
2023/04/20 01:17:16;;;;;;;14.00;6.75;;;;;;;9.14;40.71;99919.97;7338710;19;20014;-64
2023/04/20 01:19:44;;;;;;;23.02;7.35;;;;;;;9.12;40.15;99913.91;7338600;19;20154;-63
2023/04/20 01:22:16;;;;;;;14.15;6.18;;;;;;;9.14;42.06;99917.31;7338814;19;20074;-63
2023/04/20 01:24:43;;;;;;;18.10;6.97;;;;;;;9.07;42.53;99911.50;7342222;19;20074;-66
2023/04/20 01:27:08;;;;;;;18.05;7.05;;;;;;;9.08;40.86;99917.69;7346581;19;20013;-63
2023/04/20 01:29:33;;;;;;;18.83;7.18;;;;;;;9.08;41.20;99912.34;7351876;19;20019;-63
2023/04/20 01:31:58;;;;;;;16.50;6.45;;;;;;;9.05;43.00;99913.41;7356995;19;20010;-63
2023/04/20 01:34:22;;;;;;;18.30;6.93;;;;;;;9.02;42.00;99907.44;7357652;19;20362;-62
2023/04/20 01:36:47;;;;;;;15.25;6.47;;;;;;;9.02;40.08;99910.09;7360902;19;20015;-62
2023/04/20 01:39:12;;;;;;;15.55;7.57;;;;;;;9.02;39.35;99904.78;7350824;19;20018;-65
2023/04/20 01:41:37;;;;;;;18.23;7.07;;;;;;;9.00;41.13;99902.19;7343452;19;20453;-66
2023/04/20 01:44:02;;;;;;;17.88;6.55;;;;;;;8.97;40.41;99899.72;7345870;19;20556;-65
2023/04/20 01:46:26;;;;;;;14.23;6.63;;;;;;;8.95;39.63;99901.59;7346397;19;20469;-65
2023/04/20 01:48:51;;;;;;;21.92;7.95;;;;;;;8.95;43.23;99895.44;7344897;19;20010;-65
2023/04/20 01:51:16;;;;;;;14.55;6.88;;;;;;;8.91;42.32;99894.78;7348011;19;20010;-65
2023/04/20 01:53:40;;;;;;;13.95;7.43;;;;;;;8.88;44.57;99902.94;7342813;19;20362;-65
2023/04/20 01:56:05;;;;;;;19.73;7.40;;;;;;;8.87;44.42;99908.34;7345638;19;20369;-73
2023/04/20 01:58:30;;;;;;;18.55;7.85;;;;;;;8.81;45.31;99882.97;7341379;19;20050;-71
2023/04/20 02:00:55;;;;;;;18.02;7.63;;;;;;;8.79;44.40;99895.53;7346523;19;20112;-62
2023/04/20 02:03:20;;;;;;;21.67;7.78;;;;;;;8.76;42.42;99889.53;7345643;19;20047;-69
2023/04/20 02:05:45;;;;;;;15.70;7.35;;;;;;;8.73;42.90;99883.44;7344875;19;20007;-62
2023/04/20 02:08:10;;;;;;;16.73;7.35;;;;;;;8.70;44.84;99885.41;7347683;19;20054;-62
2023/04/20 02:10:37;;;;;;;20.63;7.35;;;;;;;8.67;45.01;99881.16;7345403;19;20017;-63
2023/04/20 02:13:02;;;;;;;17.42;6.75;;;;;;;8.66;42.32;99879.44;7343455;19;20014;-63
2023/04/20 02:15:29;;;;;;;15.98;7.05;;;;;;;8.64;45.21;99880.47;7343369;19;20018;-64
2023/04/20 02:17:54;;;;;;;24.23;8.88;;;;;;;8.61;44.40;99894.81;7344540;19;20011;-61
2023/04/20 02:20:19;;;;;;;20.75;7.30;;;;;;;8.57;45.23;99885.31;7345658;19;20010;-61
2023/04/20 02:22:44;;;;;;;17.73;6.85;;;;;;;8.56;44.37;99882.75;7344657;19;20017;-62
2023/04/20 02:25:09;;;;;;;16.95;6.75;;;;;;;8.56;42.91;99882.75;7344650;19;20014;-62
2023/04/20 02:27:35;;;;;;;16.23;7.22;;;;;;;8.55;44.49;99887.22;7344928;19;20014;-62
2023/04/20 02:30:03;;;;;;;20.73;6.75;;;;;;;8.53;44.34;99882.94;7342929;19;20383;-63
2023/04/20 02:32:29;;;;;;;23.35;7.72;;;;;;;8.51;44.69;99885.66;7347085;19;20017;-63
2023/04/20 02:34:54;;;;;;;25.85;8.50;;;;;;;8.50;45.55;99889.28;7349924;19;20018;-61
2023/04/20 02:37:22;;;;;;;15.93;8.15;;;;;;;8.50;44.03;99893.72;7346417;19;20007;-60
2023/04/20 02:39:47;;;;;;;18.55;7.45;;;;;;;8.53;45.03;99883.78;7350958;19;20014;-60
2023/04/20 02:42:11;;;;;;;18.30;7.45;;;;;;;8.56;43.68;99893.38;7346920;19;20092;-63
2023/04/20 02:44:37;;;;;;;23.70;7.93;;;;;;;8.54;45.63;99897.94;7345252;19;20391;-64
2023/04/20 02:47:02;;;;;;;16.15;8.00;;;;;;;8.49;44.81;99878.72;7345578;19;20459;-64
2023/04/20 02:49:27;;;;;;;16.65;7.60;;;;;;;8.61;45.20;99891.28;7343116;19;20413;-65
2023/04/20 02:51:52;;;;;;;23.38;8.40;;;;;;;8.68;45.06;99879.38;7344707;19;20348;-64
2023/04/20 02:54:17;;;;;;;18.70;7.47;;;;;;;8.80;45.21;99881.28;7344079;19;20048;-66
2023/04/20 02:56:42;;;;;;;23.75;8.30;;;;;;;8.91;43.83;99878.84;7342685;19;20442;-64
2023/04/20 02:59:08;;;;;;;25.20;8.38;;;;;;;9.03;44.31;99883.38;7344010;19;20541;-64
2023/04/20 03:01:50;;;;;;;21.15;8.00;;;;;;;9.21;44.90;99880.53;7345598;19;20027;-64
2023/04/20 03:04:20;;;;;;;20.63;8.00;;;;;;;9.36;43.47;99882.25;7351342;19;20050;-64
2023/04/20 03:07:06;;;;;;;20.23;7.78;;;;;;;9.55;43.22;99881.94;7348697;19;20435;-65
2023/04/20 03:09:33;;;;;;;32.67;8.05;;;;;;;9.65;43.75;99875.09;7344544;19;20089;-64
2023/04/20 03:12:14;;;;;;;23.60;8.50;;;;;;;9.81;43.60;99875.81;7346537;19;20018;-67
2023/04/20 03:14:57;;;;;;;22.83;9.27;;;;;;;9.96;43.01;99872.13;7346326;19;20481;-66
2023/04/20 03:17:34;;;;;;;28.35;9.27;;;;;;;10.10;43.59;99865.91;7344045;19;20020;-65
2023/04/20 03:19:59;;;;;;;25.73;9.43;;;;;;;10.24;42.54;99867.72;7344210;19;20010;-65
2023/04/20 03:22:23;;;;;;;17.10;8.15;;;;;;;10.39;42.10;99864.00;7340765;19;20006;-65
2023/04/20 03:24:52;;;;;;;24.23;8.23;;;;;;;10.53;41.37;99867.44;7340622;19;20081;-66
2023/04/20 03:27:31;;;;;;;21.98;8.00;;;;;;;10.71;41.98;99853.84;7343515;19;20414;-64
2023/04/20 03:30:04;;;;;;;29.23;9.20;;;;;;;10.85;40.77;99854.56;7340808;19;20009;-65
2023/04/20 03:32:30;;;;;;;33.85;9.70;;;;;;;11.02;40.16;99850.75;7340356;19;20062;-65
2023/04/20 03:34:55;;;;;;;22.02;8.40;;;;;;;11.12;40.86;99843.81;7341706;19;20039;-67
2023/04/20 03:37:20;;;;;;;35.58;9.18;;;;;;;11.33;40.10;99859.25;7340391;19;20014;-66
2023/04/20 03:39:45;;;;;;;24.25;8.40;;;;;;;11.46;39.58;99855.59;7338960;19;20739;-65
2023/04/20 03:42:10;;;;;;;22.70;8.93;;;;;;;11.59;39.01;99863.59;7340073;19;20465;-66
2023/04/20 03:44:34;;;;;;;18.30;8.23;;;;;;;11.72;38.43;99859.06;7339721;19;20085;-65
2023/04/20 03:47:02;;;;;;;20.83;8.60;;;;;;;11.85;38.13;99859.88;7339711;19;20010;-65
2023/04/20 03:49:28;;;;;;;32.60;10.15;;;;;;;11.95;38.18;99860.94;7344868;19;20031;-65
2023/04/20 03:51:53;;;;;;;21.63;8.77;;;;;;;12.03;38.05;99851.50;7340056;19;20675;-66
2023/04/20 03:54:18;;;;;;;25.75;8.80;;;;;;;12.12;37.58;99858.81;7339774;19;20056;-66
2023/04/20 03:56:44;;;;;;;25.40;10.05;;;;;;;12.22;37.18;99859.84;7339473;19;20070;-64
2023/04/20 03:59:10;;;;;;;34.97;10.27;;;;;;;12.32;37.45;99855.50;7338359;19;20047;-64
2023/04/20 04:01:39;;;;;;;26.10;9.25;;;;;;;12.46;36.82;99855.31;7339885;19;20096;-64
2023/04/20 04:04:04;;;;;;;20.58;9.00;;;;;;;12.61;36.45;99843.47;7341715;19;20508;-65
2023/04/20 04:06:31;;;;;;;25.90;8.88;;;;;;;12.80;36.18;99840.22;7343836;19;20015;-64
2023/04/20 04:08:55;;;;;;;18.73;8.90;;;;;;;12.99;35.99;99828.94;7341878;19;20030;-64
2023/04/20 04:11:22;;;;;;;25.70;9.25;;;;;;;13.18;35.92;99834.59;7338184;19;20048;-64
2023/04/20 04:13:48;;;;;;;31.67;11.07;;;;;;;13.41;35.67;99835.44;7339343;19;20109;-64
2023/04/20 04:16:13;;;;;;;39.08;10.20;;;;;;;13.58;35.27;99826.03;7339163;19;20496;-64
2023/04/20 04:18:43;;;;;;;26.25;9.20;;;;;;;13.88;34.77;99833.41;7337534;19;20034;-64
2023/04/20 04:21:09;;;;;;;24.02;10.40;;;;;;;14.09;34.40;99831.63;7338496;19;20089;-64
2023/04/20 04:23:36;;;;;;;22.27;9.63;;;;;;;14.24;34.48;99835.72;7342067;19;20009;-64
2023/04/20 04:26:23;;;;;;;27.95;8.68;;;;;;;14.34;33.87;99839.31;7338758;19;20395;-64
2023/04/20 04:28:52;;;;;;;27.35;9.75;;;;;;;14.49;33.86;99830.03;7338707;19;20022;-64
2023/04/20 04:31:20;;;;;;;22.60;11.18;;;;;;;14.61;33.43;99832.63;7338210;19;20025;-65
2023/04/20 04:33:45;;;;;;;31.30;13.15;;;;;;;14.82;33.20;99836.16;7338511;19;20019;-64
2023/04/20 04:36:14;;;;;;;26.75;11.15;;;;;;;15.11;32.89;99829.16;7339535;19;20083;-64
2023/04/20 04:38:39;;;;;;;22.83;10.73;;;;;;;15.39;32.50;99830.25;7336356;19;20334;-63
2023/04/20 04:41:04;;;;;;;23.92;9.82;;;;;;;15.72;32.28;99826.41;7337732;19;20024;-64
2023/04/20 04:43:30;;;;;;;29.90;10.40;;;;;;;15.90;31.58;99818.53;7337790;19;20465;-64
2023/04/20 04:46:08;;;;;;;24.30;8.73;;;;;;;16.08;31.21;99821.38;7338059;19;20026;-66
2023/04/20 04:48:34;;;;;;;20.10;10.25;;;;;;;16.15;31.43;99815.28;7337736;19;20338;-66
2023/04/20 04:50:59;;;;;;;20.50;8.95;;;;;;;16.25;31.26;99812.63;7343816;19;20457;-65
2023/04/20 04:53:23;;;;;;;22.38;9.50;;;;;;;16.50;31.08;99808.50;7339044;19;20469;-64
2023/04/20 04:55:48;;;;;;;20.88;8.98;;;;;;;16.81;30.89;99815.44;7339942;19;20007;-65
2023/04/20 04:58:14;;;;;;;30.55;10.02;;;;;;;17.05;30.73;99818.47;7337950;19;20035;-64
2023/04/20 05:00:39;;;;;;;24.73;9.02;;;;;;;17.31;30.52;99815.13;7344535;19;20447;-65
2023/04/20 05:03:03;;;;;;;21.67;8.80;;;;;;;17.59;29.73;99807.91;7344962;19;20111;-63
2023/04/20 05:05:28;;;;;;;21.45;8.40;;;;;;;17.91;28.97;99810.16;7348128;19;20020;-64
2023/04/20 05:07:53;;;;;;;22.55;9.68;;;;;;;18.28;28.65;99808.19;7344713;19;20019;-64
2023/04/20 05:10:18;;;;;;;19.45;9.30;;;;;;;18.63;28.05;99811.84;7348715;19;20015;-65
2023/04/20 05:12:43;;;;;;;20.98;9.02;;;;;;;19.02;28.13;99804.19;7345821;19;20782;-64
2023/04/20 05:15:08;;;;;;;19.35;9.48;;;;;;;19.41;27.79;99804.59;7344950;19;20469;-64
2023/04/20 05:17:33;;;;;;;19.75;8.32;;;;;;;19.68;27.48;99804.38;7344164;19;20017;-64
2023/04/20 05:19:58;;;;;;;18.48;7.93;;;;;;;19.93;27.03;99800.75;7346449;19;20019;-64
2023/04/20 05:22:23;;;;;;;14.93;8.20;;;;;;;20.17;26.62;99808.06;7345099;19;20026;-65
2023/04/20 05:24:48;;;;;;;18.58;8.40;;;;;;;20.36;26.12;99800.66;7344000;19;20030;-64
2023/04/20 05:27:12;;;;;;;16.60;9.43;;;;;;;20.52;25.90;99796.13;7346118;19;20020;-66
2023/04/20 05:29:37;;;;;;;16.33;8.00;;;;;;;20.82;25.92;99796.41;7348416;19;20011;-67
2023/04/20 05:32:02;;;;;;;20.17;7.80;;;;;;;20.88;25.23;99793.03;7344867;19;20023;-64
2023/04/20 05:34:27;;;;;;;21.98;8.93;;;;;;;20.85;25.25;99793.38;7344372;19;20015;-64
2023/04/20 05:36:53;;;;;;;15.88;8.63;;;;;;;21.05;25.14;99791.97;7348344;19;20011;-66
2023/04/20 05:39:18;;;;;;;19.95;8.13;;;;;;;21.37;24.61;99788.34;7343011;19;20038;-66
2023/04/20 05:41:42;;;;;;;18.83;7.72;;;;;;;21.53;24.51;99782.00;7349555;19;20007;-65
2023/04/20 05:44:07;;;;;;;16.00;8.43;;;;;;;21.78;24.13;99794.44;7356187;19;20010;-65
2023/04/20 05:46:32;;;;;;;13.73;7.68;;;;;;;22.17;24.07;99779.97;7354503;19;20015;-67
2023/04/20 05:48:56;;;;;;;31.90;8.75;;;;;;;22.44;23.39;99777.56;7354919;19;20014;-66
2023/04/20 05:51:21;;;;;;;14.43;7.90;;;;;;;22.90;23.33;99788.38;7352246;19;20466;-66
2023/04/20 05:53:46;;;;;;;17.33;7.50;;;;;;;23.49;22.55;99793.81;7347339;19;20007;-67
2023/04/20 05:56:10;;;;;;;19.77;9.45;;;;;;;24.09;22.95;99784.53;7345167;19;20013;-67
2023/04/20 05:58:36;;;;;;;15.77;8.40;;;;;;;24.52;22.00;99775.34;7344240;19;20074;-67
2023/04/20 06:01:03;;;;;;;15.32;8.32;;;;;;;24.94;21.40;99784.56;7343797;19;20018;-66
2023/04/20 06:03:27;;;;;;;22.65;7.57;;;;;;;25.34;21.29;99777.44;7345311;19;20106;-66
2023/04/20 06:05:52;;;;;;;14.10;7.68;;;;;;;25.76;20.89;99781.03;7344749;19;20007;-66
2023/04/20 06:08:18;;;;;;;14.98;7.78;;;;;;;26.01;20.70;99777.56;7345208;19;20014;-66
2023/04/20 06:10:42;;;;;;;13.90;8.00;;;;;;;26.33;20.20;99775.97;7339769;19;20037;-65
2023/04/20 06:13:07;;;;;;;18.30;8.02;;;;;;;26.49;19.63;99773.91;7344495;19;20011;-66
2023/04/20 06:15:32;;;;;;;25.52;8.32;;;;;;;26.58;19.76;99783.56;7346220;19;20025;-63
2023/04/20 06:17:56;;;;;;;18.58;8.38;;;;;;;26.92;19.38;99782.50;7342119;19;20017;-63
2023/04/20 06:20:21;;;;;;;15.00;8.85;;;;;;;27.31;19.19;99785.22;7345229;19;20018;-63
2023/04/20 06:22:46;;;;;;;18.13;8.55;;;;;;;27.51;18.73;99778.84;7346159;19;20037;-65
2023/04/20 06:25:12;;;;;;;15.65;7.70;;;;;;;27.96;18.75;99777.00;7353314;19;20093;-65
2023/04/20 06:27:37;;;;;;;15.88;7.95;;;;;;;28.17;18.34;99769.31;7348674;19;20795;-63
2023/04/20 06:30:03;;;;;;;19.67;8.23;;;;;;;28.40;18.43;99778.88;7345520;19;20371;-66
2023/04/20 06:32:29;;;;;;;16.08;8.25;;;;;;;28.89;18.16;99775.34;7345793;19;20069;-64
2023/04/20 06:34:54;;;;;;;19.38;8.15;;;;;;;29.20;17.93;99772.50;7347164;19;20035;-65
2023/04/20 06:37:19;;;;;;;15.85;8.52;;;;;;;29.81;17.99;99770.75;7344890;19;20010;-65
2023/04/20 06:39:44;;;;;;;11.95;7.03;;;;;;;30.59;17.37;99768.78;7340338;19;20011;-64
2023/04/20 06:42:08;;;;;;;15.88;7.93;;;;;;;31.29;17.11;99771.59;7344006;19;20017;-65
2023/04/20 06:44:33;;;;;;;16.55;7.45;;;;;;;31.59;16.25;99759.59;7343768;19;20017;-64
2023/04/20 06:46:58;;;;;;;11.27;7.20;;;;;;;31.55;16.24;99766.66;7343450;19;20018;-65
2023/04/20 06:49:22;;;;;;;11.07;7.32;;;;;;;31.25;16.04;99755.81;7343677;19;20014;-66
2023/04/20 06:51:47;;;;;;;12.07;7.13;;;;;;;30.96;16.52;99757.59;7341689;19;20006;-64
2023/04/20 06:54:11;;;;;;;12.98;7.97;;;;;;;31.15;16.37;99750.09;7344788;19;20030;-64
2023/04/20 06:56:36;;;;;;;10.13;7.28;;;;;;;31.63;16.07;99753.38;7343145;19;20029;-64
2023/04/20 06:59:01;;;;;;;15.32;7.90;;;;;;;31.95;15.87;99759.25;7341512;19;20473;-64
2023/04/20 07:01:26;;;;;;;11.52;8.45;;;;;;;32.76;15.96;99737.84;7342501;19;20081;-66
2023/04/20 07:03:51;;;;;;;10.43;7.70;;;;;;;32.94;15.18;99740.34;7342310;19;20007;-65
2023/04/20 07:06:16;;;;;;;9.43;7.13;;;;;;;33.13;14.80;99740.91;7343199;19;20014;-67
2023/04/20 07:08:40;;;;;;;11.13;7.97;;;;;;;33.66;14.90;99734.72;7342756;19;20033;-66
2023/04/20 07:11:05;;;;;;;14.43;8.48;;;;;;;33.99;14.90;99733.75;7341028;19;20018;-65
2023/04/20 07:13:30;;;;;;;18.15;8.57;;;;;;;34.38;14.20;99726.16;7343973;19;20457;-64
2023/04/20 07:15:55;;;;;;;17.75;7.85;;;;;;;34.62;14.20;99732.16;7345636;19;20026;-65
2023/04/20 07:18:20;;;;;;;16.70;7.22;;;;;;;34.85;14.35;99725.44;7343705;19;20025;-65
2023/04/20 07:20:44;;;;;;;13.00;7.47;;;;;;;35.10;14.15;99722.00;7346009;19;20011;-66
2023/04/20 07:23:09;;;;;;;13.80;6.90;;;;;;;35.48;13.41;99729.97;7342362;19;20098;-63
2023/04/20 07:25:34;;;;;;;12.55;7.32;;;;;;;34.18;14.05;99729.53;7341903;19;20028;-65
2023/04/20 07:27:59;;;;;;;12.13;6.25;;;;;;;33.80;14.13;99726.91;7341549;19;20018;-64
2023/04/20 07:30:24;;;;;;;11.00;6.97;;;;;;;33.24;14.06;99726.16;7341392;19;20472;-64
2023/04/20 07:32:50;;;;;;;12.45;6.00;;;;;;;33.46;13.99;99718.72;7342223;19;20018;-65
2023/04/20 07:35:15;;;;;;;9.48;6.35;;;;;;;34.57;13.44;99719.09;7342091;19;20015;-63
2023/04/20 07:37:40;;;;;;;11.70;6.25;;;;;;;34.17;13.20;99705.72;7341234;19;20010;-64
2023/04/20 07:40:05;;;;;;;13.13;6.80;;;;;;;34.00;13.46;99724.34;7341777;19;20022;-65
2023/04/20 07:42:37;;;;;;;7.40;5.80;;;;;;;34.69;13.15;99718.91;7340341;19;20010;-63
2023/04/20 07:45:03;;;;;;;8.95;6.15;;;;;;;35.05;12.86;99713.66;7340234;19;20338;-63
2023/04/20 07:47:35;;;;;;;7.53;5.57;;;;;;;35.04;12.53;99723.06;7341774;19;20022;-64
2023/04/20 07:50:00;;;;;;;10.07;6.00;;;;;;;34.82;12.47;99709.34;7341584;19;20022;-64
2023/04/20 07:52:25;;;;;;;7.05;5.65;;;;;;;34.64;12.72;99705.06;7343039;19;20021;-65
2023/04/20 07:54:52;;;;;;;13.13;6.35;;;;;;;34.74;12.41;99709.81;7341350;19;20067;-64
2023/04/20 07:57:17;;;;;;;10.15;6.00;;;;;;;33.43;12.35;99710.94;7340618;19;20029;-63
2023/04/20 07:59:44;;;;;;;8.82;6.35;;;;;;;31.00;13.68;99707.31;7341185;19;20019;-64
2023/04/20 08:02:09;;;;;;;6.20;5.60;;;;;;;28.61;14.99;99703.59;7342895;19;20473;-66
2023/04/20 08:04:37;;;;;;;10.18;6.45;;;;;;;27.20;16.38;99717.44;7343953;19;20014;-65
2023/04/20 08:07:02;;;;;;;7.70;5.88;;;;;;;26.68;16.60;99704.69;7343060;19;20022;-65
2023/04/20 08:09:27;;;;;;;8.27;5.65;;;;;;;26.13;16.71;99698.56;7342055;19;20013;-66
2023/04/20 08:11:52;;;;;;;10.95;6.07;;;;;;;25.59;17.46;99701.34;7339742;19;20014;-65
2023/04/20 08:14:16;;;;;;;9.02;5.78;;;;;;;25.46;17.58;99704.88;7340320;19;20025;-65
2023/04/20 08:16:41;;;;;;;10.20;5.45;;;;;;;24.85;17.93;99695.69;7341844;19;20006;-65
2023/04/20 08:19:09;;;;;;;10.63;5.90;;;;;;;24.24;18.25;99688.13;7343244;19;20022;-66
2023/04/20 08:21:38;;;;;;;6.57;4.78;;;;;;;24.02;18.62;99697.34;7340487;19;20443;-64
2023/04/20 08:24:04;;;;;;;16.38;6.28;;;;;;;25.05;18.41;99702.16;7340739;19;20046;-66
2023/04/20 08:26:30;;;;;;;8.32;5.53;;;;;;;26.09;17.65;99691.81;7339468;19;20014;-64
2023/04/20 08:28:55;;;;;;;7.82;5.28;;;;;;;26.17;17.04;99686.16;7340525;19;20015;-66
2023/04/20 08:31:20;;;;;;;7.70;5.75;;;;;;;26.85;17.18;99686.78;7340504;19;20019;-65
2023/04/20 08:33:45;;;;;;;8.48;5.50;;;;;;;27.43;16.75;99692.28;7341451;19;20465;-64
2023/04/20 08:36:10;;;;;;;12.93;5.13;;;;;;;26.87;16.75;99679.19;7348194;19;20007;-65
2023/04/20 08:38:35;;;;;;;9.00;5.50;;;;;;;26.00;17.53;99672.06;7345576;19;20015;-66
2023/04/20 08:40:59;;;;;;;11.98;6.32;;;;;;;26.86;17.43;99674.78;7350841;19;20021;-65
2023/04/20 08:43:24;;;;;;;7.80;5.82;;;;;;;28.30;16.47;99672.41;7348872;19;20547;-66
2023/04/20 08:45:50;;;;;;;9.55;6.18;;;;;;;29.81;15.79;99672.63;7348684;19;20018;-66
2023/04/20 08:48:16;;;;;;;10.05;5.40;;;;;;;31.14;15.06;99672.13;7349302;19;20360;-67
2023/04/20 08:50:41;;;;;;;7.88;5.53;;;;;;;30.46;14.64;99669.13;7347711;19;20020;-65
2023/04/20 08:53:05;;;;;;;8.45;5.47;;;;;;;29.32;15.52;99661.88;7350221;19;20011;-65
2023/04/20 08:55:30;;;;;;;6.68;4.95;;;;;;;28.98;15.69;99666.94;7347473;19;20335;-66
2023/04/20 08:57:55;;;;;;;9.52;5.43;;;;;;;28.42;15.56;99670.63;7346515;19;20481;-64
2023/04/20 09:00:20;;;;;;;6.97;5.40;;;;;;;27.29;15.94;99668.78;7345048;19;20135;-63
2023/04/20 09:02:54;;;;;;;9.52;5.35;;;;;;;26.50;16.68;99660.75;7346555;19;20027;-63
2023/04/20 09:05:29;;;;;;;12.27;6.00;;;;;;;25.18;17.98;99676.81;7347098;19;20006;-65
2023/04/20 09:07:56;;;;;;;9.95;6.07;;;;;;;23.91;18.39;99667.91;7347177;19;20022;-65
2023/04/20 09:10:22;;;;;;;10.00;5.88;;;;;;;24.43;17.96;99661.22;7346171;19;20014;-65
2023/04/20 09:12:47;;;;;;;8.70;5.30;;;;;;;25.13;18.09;99661.06;7352529;19;20057;-66
2023/04/20 09:15:24;;;;;;;8.02;5.78;;;;;;;27.35;17.22;99662.41;7346016;19;20018;-65
2023/04/20 09:17:48;;;;;;;9.45;5.78;;;;;;;29.04;15.84;99649.53;7348459;19;20018;-64
2023/04/20 09:20:13;;;;;;;8.07;5.20;;;;;;;30.70;14.66;99659.00;7350557;19;20013;-66
2023/04/20 09:22:38;;;;;;;6.78;5.57;;;;;;;30.76;14.55;99653.34;7350925;19;20729;-66
2023/04/20 09:25:16;;;;;;;7.13;5.63;;;;;;;31.24;14.83;99669.59;7349144;19;20054;-67
2023/04/20 09:27:41;;;;;;;7.15;5.63;;;;;;;31.04;14.32;99653.41;7348676;19;20015;-66
2023/04/20 09:30:06;;;;;;;8.77;5.82;;;;;;;30.87;14.35;99651.66;7347013;19;20037;-64
2023/04/20 09:32:31;;;;;;;7.18;6.20;;;;;;;32.09;13.82;99627.41;7346637;19;20014;-65
2023/04/20 09:34:56;;;;;;;9.57;5.82;;;;;;;33.86;13.30;99632.63;7350075;19;20038;-66
2023/04/20 09:37:21;;;;;;;6.82;5.47;;;;;;;34.00;13.02;99629.44;7346220;19;20010;-65
2023/04/20 09:39:46;;;;;;;9.35;6.18;;;;;;;33.17;13.46;99635.16;7344240;19;20495;-65
2023/04/20 09:42:12;;;;;;;11.38;6.07;;;;;;;32.49;13.89;99635.53;7344733;19;20354;-66
2023/04/20 09:44:39;;;;;;;15.00;6.38;;;;;;;32.97;13.31;99642.31;7344734;19;20019;-66
2023/04/20 09:47:04;;;;;;;7.60;6.53;;;;;;;31.72;13.38;99632.53;7345442;19;20371;-66
2023/04/20 09:49:29;;;;;;;8.57;5.60;;;;;;;30.41;14.06;99623.06;7346822;19;20019;-66
2023/04/20 09:51:56;;;;;;;9.35;5.82;;;;;;;29.15;14.98;99640.53;7348830;19;20019;-65
2023/04/20 09:54:21;;;;;;;8.10;6.03;;;;;;;27.85;16.02;99627.00;7344199;19;20045;-65
2023/04/20 09:56:47;;;;;;;11.27;5.90;;;;;;;28.45;15.96;99630.94;7345426;19;20019;-64
2023/04/20 09:59:13;;;;;;;9.90;5.78;;;;;;;29.66;15.13;99621.94;7343448;19;20047;-65
2023/04/20 10:01:37;;;;;;;10.13;6.00;;;;;;;29.71;15.26;99616.56;7345219;19;20042;-66
2023/04/20 10:04:07;;;;;;;6.43;5.20;;;;;;;29.01;15.24;99617.03;7345005;19;20006;-66
2023/04/20 10:06:34;;;;;;;7.00;5.13;;;;;;;27.74;16.04;99612.09;7345226;19;20026;-67
2023/04/20 10:09:05;;;;;;;9.05;5.00;;;;;;;27.57;16.30;99611.78;7348678;19;20018;-66
2023/04/20 10:11:41;;;;;;;7.22;5.85;;;;;;;28.97;15.60;99609.53;7343163;19;20014;-66
2023/04/20 10:14:20;;;;;;;7.63;6.07;;;;;;;31.35;14.45;99604.53;7343828;19;20037;-66
2023/04/20 10:16:46;;;;;;;10.05;5.68;;;;;;;31.70;13.89;99615.41;7344631;19;20476;-66
2023/04/20 10:19:11;;;;;;;8.35;5.50;;;;;;;30.42;14.41;99610.13;7344052;19;20007;-65
2023/04/20 10:21:48;;;;;;;7.88;5.97;;;;;;;29.10;15.38;99607.47;7342980;19;20018;-66
2023/04/20 10:24:14;;;;;;;7.32;5.72;;;;;;;27.14;16.41;99597.03;7346327;19;20357;-66
2023/04/20 10:26:46;;;;;;;6.60;5.13;;;;;;;26.13;16.85;99602.91;7344584;19;20393;-65
2023/04/20 10:29:23;;;;;;;6.50;5.10;;;;;;;25.53;17.13;99604.72;7344433;19;20018;-66
2023/04/20 10:31:48;;;;;;;9.50;5.43;;;;;;;23.65;17.81;99603.13;7342686;19;20026;-65
2023/04/20 10:34:13;;;;;;;7.85;5.38;;;;;;;22.30;19.14;99598.25;7342383;19;20042;-66
2023/04/20 10:36:38;;;;;;;6.97;5.38;;;;;;;21.66;20.13;99603.22;7344565;19;20022;-65
2023/04/20 10:39:19;;;;;;;12.00;6.28;;;;;;;21.54;20.11;99594.66;7343628;19;20007;-64
2023/04/20 10:41:57;;;;;;;7.32;5.32;;;;;;;21.19;20.85;99595.22;7343414;19;20438;-65
2023/04/20 10:44:22;;;;;;;10.95;5.68;;;;;;;20.86;20.99;99589.13;7344718;19;20014;-66
2023/04/20 10:46:49;;;;;;;8.52;4.57;;;;;;;20.73;21.03;99594.25;7344861;19;20021;-69
2023/04/20 10:49:14;;;;;;;8.27;4.88;;;;;;;20.77;20.67;99593.69;7352147;19;20042;-65
2023/04/20 10:51:45;;;;;;;7.07;5.30;;;;;;;20.74;20.97;99595.94;7352659;19;20006;-65
2023/04/20 10:54:10;;;;;;;10.80;5.20;;;;;;;20.68;20.89;99594.75;7349846;19;20011;-64
2023/04/20 10:56:46;;;;;;;6.57;5.20;;;;;;;20.57;21.40;99581.59;7344403;19;20066;-65
2023/04/20 10:59:13;;;;;;;9.85;5.07;;;;;;;20.36;21.12;99593.00;7346950;19;20011;-67
2023/04/20 11:01:38;;;;;;;8.25;5.45;;;;;;;20.18;20.84;99579.66;7348479;19;20045;-65
2023/04/20 11:04:03;;;;;;;8.40;4.80;;;;;;;20.12;21.18;99568.66;7347362;19;19998;-65
2023/04/20 11:06:28;;;;;;;9.85;4.90;;;;;;;20.14;21.24;99574.75;7360268;19;20071;-66
2023/04/20 11:08:52;;;;;;;7.45;5.15;;;;;;;20.15;21.37;99565.63;7360389;19;20014;-65
2023/04/20 11:11:29;;;;;;;9.13;5.40;;;;;;;20.12;21.28;99579.50;7354954;19;20019;-64
2023/04/20 11:14:08;;;;;;;9.73;5.20;;;;;;;20.04;21.45;99579.53;7347412;19;20052;-65
2023/04/20 11:16:33;;;;;;;10.68;5.15;;;;;;;19.81;21.48;99566.69;7344983;19;20018;-67
2023/04/20 11:18:58;;;;;;;6.65;4.95;;;;;;;19.80;21.91;99559.59;7343109;19;20078;-65
2023/04/20 11:21:22;;;;;;;11.55;5.20;;;;;;;19.96;21.96;99568.72;7342784;19;20018;-68
2023/04/20 11:23:48;;;;;;;8.27;5.25;;;;;;;20.03;21.52;99558.88;7340650;19;20015;-68
2023/04/20 11:26:14;;;;;;;8.48;4.50;;;;;;;20.02;21.42;99558.03;7341553;19;20585;-66